KLUF/LUF METAR and TAF weather

Enter ICAO airport designator
Station Type Date Time Source
KLUF METAR 2019/12/08 10:58 UTC NOAA

KLUF 081058Z AUTO 00000KT 10SM BKN015 OVC024 13/ A3004 RMK AO2 SLP168 $


Station Type Date Time Source
KLUF Decoded METAR 2019/12/08 10:58 UTC NOAA

Luke Air Force Base / Phoenix, AZ, United States (KLUF) 33-32N 112-23W 332M
Dec 08, 2019 - 05:58 AM EST / 2019.12.08 1058 UTC
Wind: Calm:0
Visibility: 10 mile(s):0
Sky conditions: overcast
Temperature: 55 F (13 C)
Pressure (altimeter): 30.04 in. Hg (1017 hPa)
ob: KLUF 081058Z AUTO 00000KT 10SM BKN015 OVC024 13/ A3004 RMK AO2 SLP168
cycle: 11

Station Type Date Time Source
KLUF TAF 2019/12/06 20:14 UTC NOAA

TAF KLUF 062000Z 0620/0802 VRB06KT 9999 FEW120 BKN200 QNH3009INS
BECMG 0706/0707 VRB06KT 9999 SCT170 QNH3009INS
BECMG 0717/0718 VRB06KT 9999 SCT070 BKN160 QNH3003INS TX20/0623Z TN09/0713Z LAST NO
AMDS AFT 0623 NEXT 0912

Example: see airport list